sensor_id;sensor_type;location;lat;lon;timestamp;temperature;humidity
37158;DHT22;23050;51.776;22.638;2022-07-29T00:02:10;12.30;99.90
37158;DHT22;23050;51.776;22.638;2022-07-29T00:04:36;12.20;99.90
37158;DHT22;23050;51.776;22.638;2022-07-29T00:07:03;12.20;99.90
37158;DHT22;23050;51.776;22.638;2022-07-29T00:09:29;12.10;99.90
37158;DHT22;23050;51.776;22.638;2022-07-29T00:11:57;12.10;99.90
37158;DHT22;23050;51.776;22.638;2022-07-29T00:14:24;12.00;99.90
37158;DHT22;23050;51.776;22.638;2022-07-29T00:16:49;12.00;99.90
37158;DHT22;23050;51.776;22.638;2022-07-29T00:19:15;11.90;99.90
37158;DHT22;23050;51.776;22.638;2022-07-29T00:21:40;12.00;99.90
37158;DHT22;23050;51.776;22.638;2022-07-29T00:24:06;12.00;99.90
37158;DHT22;23050;51.776;22.638;2022-07-29T00:26:32;11.90;99.90
37158;DHT22;23050;51.776;22.638;2022-07-29T00:29:02;12.00;99.90
37158;DHT22;23050;51.776;22.638;2022-07-29T00:31:27;11.90;99.90
37158;DHT22;23050;51.776;22.638;2022-07-29T00:33:53;11.80;99.90
37158;DHT22;23050;51.776;22.638;2022-07-29T00:36:19;11.80;99.90
37158;DHT22;23050;51.776;22.638;2022-07-29T00:38:49;11.80;99.90
37158;DHT22;23050;51.776;22.638;2022-07-29T00:41:16;11.70;99.90
37158;DHT22;23050;51.776;22.638;2022-07-29T00:43:42;11.80;99.90
37158;DHT22;23050;51.776;22.638;2022-07-29T00:46:08;11.70;99.90
37158;DHT22;23050;51.776;22.638;2022-07-29T00:48:33;11.70;99.90
37158;DHT22;23050;51.776;22.638;2022-07-29T00:51:01;11.60;99.90
37158;DHT22;23050;51.776;22.638;2022-07-29T00:53:27;11.70;99.90
37158;DHT22;23050;51.776;22.638;2022-07-29T00:55:54;11.60;99.90
37158;DHT22;23050;51.776;22.638;2022-07-29T00:58:20;11.60;99.90
37158;DHT22;23050;51.776;22.638;2022-07-29T01:00:46;11.60;99.90
37158;DHT22;23050;51.776;22.638;2022-07-29T01:03:12;11.70;99.90
37158;DHT22;23050;51.776;22.638;2022-07-29T01:05:39;11.60;99.90
37158;DHT22;23050;51.776;22.638;2022-07-29T01:08:06;11.50;99.90
37158;DHT22;23050;51.776;22.638;2022-07-29T01:10:32;11.40;99.90
37158;DHT22;23050;51.776;22.638;2022-07-29T01:12:59;11.40;99.90
37158;DHT22;23050;51.776;22.638;2022-07-29T01:15:26;11.40;99.90
37158;DHT22;23050;51.776;22.638;2022-07-29T01:18:16;11.40;99.90
37158;DHT22;23050;51.776;22.638;2022-07-29T01:26:46;11.30;99.90
37158;DHT22;23050;51.776;22.638;2022-07-29T01:29:41;11.30;99.90
37158;DHT22;23050;51.776;22.638;2022-07-29T01:32:14;11.40;99.90
37158;DHT22;23050;51.776;22.638;2022-07-29T01:34:50;11.50;99.90
37158;DHT22;23050;51.776;22.638;2022-07-29T01:39:57;11.60;99.90
37158;DHT22;23050;51.776;22.638;2022-07-29T01:42:36;11.50;99.90
37158;DHT22;23050;51.776;22.638;2022-07-29T01:45:08;11.50;99.90
37158;DHT22;23050;51.776;22.638;2022-07-29T01:48:02;11.50;99.90
37158;DHT22;23050;51.776;22.638;2022-07-29T01:50:35;11.50;99.90
37158;DHT22;23050;51.776;22.638;2022-07-29T01:53:07;11.50;99.90
37158;DHT22;23050;51.776;22.638;2022-07-29T01:55:38;11.50;99.90
37158;DHT22;23050;51.776;22.638;2022-07-29T01:58:05;11.50;99.90
37158;DHT22;23050;51.776;22.638;2022-07-29T02:00:32;11.40;99.90
37158;DHT22;23050;51.776;22.638;2022-07-29T02:03:11;11.40;99.90
37158;DHT22;23050;51.776;22.638;2022-07-29T02:05:39;11.40;99.90
37158;DHT22;23050;51.776;22.638;2022-07-29T02:08:06;11.50;99.90
37158;DHT22;23050;51.776;22.638;2022-07-29T02:10:33;11.50;99.90
37158;DHT22;23050;51.776;22.638;2022-07-29T02:13:00;11.40;99.90
37158;DHT22;23050;51.776;22.638;2022-07-29T02:15:30;11.40;99.90
37158;DHT22;23050;51.776;22.638;2022-07-29T02:18:18;11.40;99.90
37158;DHT22;23050;51.776;22.638;2022-07-29T02:20:48;11.30;99.90
37158;DHT22;23050;51.776;22.638;2022-07-29T02:23:18;11.30;99.90
37158;DHT22;23050;51.776;22.638;2022-07-29T02:25:46;11.30;99.90
37158;DHT22;23050;51.776;22.638;2022-07-29T02:28:13;11.20;99.90
37158;DHT22;23050;51.776;22.638;2022-07-29T02:30:41;11.20;99.90
37158;DHT22;23050;51.776;22.638;2022-07-29T02:33:10;11.20;99.90
37158;DHT22;23050;51.776;22.638;2022-07-29T02:35:38;11.20;99.90
37158;DHT22;23050;51.776;22.638;2022-07-29T02:38:05;11.20;99.90
37158;DHT22;23050;51.776;22.638;2022-07-29T02:40:50;11.10;99.90
37158;DHT22;23050;51.776;22.638;2022-07-29T02:43:17;11.10;99.90
37158;DHT22;23050;51.776;22.638;2022-07-29T02:45:44;11.10;99.90
37158;DHT22;23050;51.776;22.638;2022-07-29T02:48:15;11.10;99.90
37158;DHT22;23050;51.776;22.638;2022-07-29T02:50:46;11.10;99.90
37158;DHT22;23050;51.776;22.638;2022-07-29T02:53:14;11.10;99.90
37158;DHT22;23050;51.776;22.638;2022-07-29T02:56:01;11.10;99.90
37158;DHT22;23050;51.776;22.638;2022-07-29T02:58:36;11.10;99.90
37158;DHT22;23050;51.776;22.638;2022-07-29T03:01:08;11.10;99.90
37158;DHT22;23050;51.776;22.638;2022-07-29T03:03:38;11.00;99.90
37158;DHT22;23050;51.776;22.638;2022-07-29T03:06:05;11.00;99.90
37158;DHT22;23050;51.776;22.638;2022-07-29T03:08:32;11.10;99.90
37158;DHT22;23050;51.776;22.638;2022-07-29T03:11:00;11.10;99.90
37158;DHT22;23050;51.776;22.638;2022-07-29T03:13:27;11.10;99.90
37158;DHT22;23050;51.776;22.638;2022-07-29T03:15:55;11.10;99.90
37158;DHT22;23050;51.776;22.638;2022-07-29T03:18:21;11.10;99.90
37158;DHT22;23050;51.776;22.638;2022-07-29T03:20:47;11.00;99.90
37158;DHT22;23050;51.776;22.638;2022-07-29T03:23:21;11.10;99.90
37158;DHT22;23050;51.776;22.638;2022-07-29T03:25:49;11.10;99.90
37158;DHT22;23050;51.776;22.638;2022-07-29T03:28:15;11.00;99.90
37158;DHT22;23050;51.776;22.638;2022-07-29T03:30:41;11.20;99.90
37158;DHT22;23050;51.776;22.638;2022-07-29T03:33:06;11.10;99.90
37158;DHT22;23050;51.776;22.638;2022-07-29T03:35:32;11.20;99.90
37158;DHT22;23050;51.776;22.638;2022-07-29T03:37:58;11.30;99.90
37158;DHT22;23050;51.776;22.638;2022-07-29T03:40:38;11.30;99.90
37158;DHT22;23050;51.776;22.638;2022-07-29T03:43:05;11.30;99.90
37158;DHT22;23050;51.776;22.638;2022-07-29T03:45:32;11.40;99.90
37158;DHT22;23050;51.776;22.638;2022-07-29T03:48:05;11.40;99.90
37158;DHT22;23050;51.776;22.638;2022-07-29T03:50:33;11.50;99.90
37158;DHT22;23050;51.776;22.638;2022-07-29T03:53:00;11.50;99.90
37158;DHT22;23050;51.776;22.638;2022-07-29T03:55:26;11.60;99.90
37158;DHT22;23050;51.776;22.638;2022-07-29T03:57:54;11.60;99.90
37158;DHT22;23050;51.776;22.638;2022-07-29T04:00:22;11.70;99.90
37158;DHT22;23050;51.776;22.638;2022-07-29T04:02:48;11.80;99.90
37158;DHT22;23050;51.776;22.638;2022-07-29T04:05:15;11.80;99.90
37158;DHT22;23050;51.776;22.638;2022-07-29T04:07:44;11.90;99.90
37158;DHT22;23050;51.776;22.638;2022-07-29T04:10:10;12.00;99.90
37158;DHT22;23050;51.776;22.638;2022-07-29T04:12:35;12.10;99.90
37158;DHT22;23050;51.776;22.638;2022-07-29T04:15:03;12.10;99.90
37158;DHT22;23050;51.776;22.638;2022-07-29T04:17:28;12.20;99.90
37158;DHT22;23050;51.776;22.638;2022-07-29T04:19:54;12.30;99.90
37158;DHT22;23050;51.776;22.638;2022-07-29T04:22:19;12.40;99.90
37158;DHT22;23050;51.776;22.638;2022-07-29T04:24:45;12.50;99.90
37158;DHT22;23050;51.776;22.638;2022-07-29T04:27:10;12.60;99.90
37158;DHT22;23050;51.776;22.638;2022-07-29T04:29:36;12.80;99.90
37158;DHT22;23050;51.776;22.638;2022-07-29T04:32:02;12.90;99.90
37158;DHT22;23050;51.776;22.638;2022-07-29T04:34:27;13.00;99.90
37158;DHT22;23050;51.776;22.638;2022-07-29T04:36:53;13.20;99.90
37158;DHT22;23050;51.776;22.638;2022-07-29T04:39:18;13.30;99.90
37158;DHT22;23050;51.776;22.638;2022-07-29T04:41:44;13.50;99.90
37158;DHT22;23050;51.776;22.638;2022-07-29T04:44:10;13.70;99.90
37158;DHT22;23050;51.776;22.638;2022-07-29T04:46:36;13.80;99.90
37158;DHT22;23050;51.776;22.638;2022-07-29T04:49:02;14.00;99.90
37158;DHT22;23050;51.776;22.638;2022-07-29T04:51:28;14.20;99.90
37158;DHT22;23050;51.776;22.638;2022-07-29T04:53:54;14.40;99.90
37158;DHT22;23050;51.776;22.638;2022-07-29T04:56:19;14.60;99.90
37158;DHT22;23050;51.776;22.638;2022-07-29T04:58:45;14.70;99.90
37158;DHT22;23050;51.776;22.638;2022-07-29T05:01:11;14.90;99.90
37158;DHT22;23050;51.776;22.638;2022-07-29T05:03:36;15.10;99.90
37158;DHT22;23050;51.776;22.638;2022-07-29T05:06:02;15.30;99.90
37158;DHT22;23050;51.776;22.638;2022-07-29T05:08:27;15.40;99.90
37158;DHT22;23050;51.776;22.638;2022-07-29T05:10:53;15.60;99.90
37158;DHT22;23050;51.776;22.638;2022-07-29T05:13:18;15.80;99.90
37158;DHT22;23050;51.776;22.638;2022-07-29T05:15:44;16.00;99.90
37158;DHT22;23050;51.776;22.638;2022-07-29T05:18:10;16.30;99.90
37158;DHT22;23050;51.776;22.638;2022-07-29T05:20:35;16.50;99.90
37158;DHT22;23050;51.776;22.638;2022-07-29T05:23:02;16.90;99.90
37158;DHT22;23050;51.776;22.638;2022-07-29T05:25:28;17.50;99.90
37158;DHT22;23050;51.776;22.638;2022-07-29T05:27:55;18.70;99.90
37158;DHT22;23050;51.776;22.638;2022-07-29T05:30:21;19.90;99.90
37158;DHT22;23050;51.776;22.638;2022-07-29T05:32:47;21.00;99.90
37158;DHT22;23050;51.776;22.638;2022-07-29T05:35:14;21.70;99.90
37158;DHT22;23050;51.776;22.638;2022-07-29T05:37:40;22.40;99.90
37158;DHT22;23050;51.776;22.638;2022-07-29T05:40:07;22.60;99.90
37158;DHT22;23050;51.776;22.638;2022-07-29T05:42:33;22.90;98.20
37158;DHT22;23050;51.776;22.638;2022-07-29T05:44:59;23.80;86.40
37158;DHT22;23050;51.776;22.638;2022-07-29T05:47:25;24.10;77.70
37158;DHT22;23050;51.776;22.638;2022-07-29T05:49:50;24.30;72.10
37158;DHT22;23050;51.776;22.638;2022-07-29T05:52:16;25.10;68.40
37158;DHT22;23050;51.776;22.638;2022-07-29T05:54:42;25.40;56.80
37158;DHT22;23050;51.776;22.638;2022-07-29T05:57:07;25.70;49.40
37158;DHT22;23050;51.776;22.638;2022-07-29T05:59:37;26.00;40.50
37158;DHT22;23050;51.776;22.638;2022-07-29T06:02:03;26.00;38.40
37158;DHT22;23050;51.776;22.638;2022-07-29T06:04:31;26.30;34.70
37158;DHT22;23050;51.776;22.638;2022-07-29T06:06:56;26.70;32.70
37158;DHT22;23050;51.776;22.638;2022-07-29T06:09:22;26.80;30.90
37158;DHT22;23050;51.776;22.638;2022-07-29T06:11:48;27.20;27.40
37158;DHT22;23050;51.776;22.638;2022-07-29T06:14:14;27.40;27.90
37158;DHT22;23050;51.776;22.638;2022-07-29T06:16:39;27.50;25.50
37158;DHT22;23050;51.776;22.638;2022-07-29T06:19:05;27.20;25.50
37158;DHT22;23050;51.776;22.638;2022-07-29T06:21:31;27.50;25.10
37158;DHT22;23050;51.776;22.638;2022-07-29T06:23:56;28.20;23.30
37158;DHT22;23050;51.776;22.638;2022-07-29T06:26:22;28.10;21.50
37158;DHT22;23050;51.776;22.638;2022-07-29T06:28:48;28.00;21.30
37158;DHT22;23050;51.776;22.638;2022-07-29T06:31:14;28.10;20.80
37158;DHT22;23050;51.776;22.638;2022-07-29T06:33:40;28.60;18.10
37158;DHT22;23050;51.776;22.638;2022-07-29T06:36:05;28.70;15.90
37158;DHT22;23050;51.776;22.638;2022-07-29T06:38:33;28.10;15.10
37158;DHT22;23050;51.776;22.638;2022-07-29T06:40:59;28.30;16.40
37158;DHT22;23050;51.776;22.638;2022-07-29T06:43:26;28.50;17.40
37158;DHT22;23050;51.776;22.638;2022-07-29T06:45:52;28.90;15.60
37158;DHT22;23050;51.776;22.638;2022-07-29T06:48:18;28.80;15.40
37158;DHT22;23050;51.776;22.638;2022-07-29T06:50:43;29.40;15.50
37158;DHT22;23050;51.776;22.638;2022-07-29T06:53:09;29.90;14.40
37158;DHT22;23050;51.776;22.638;2022-07-29T06:55:34;29.70;11.90
37158;DHT22;23050;51.776;22.638;2022-07-29T06:58:02;29.60;12.00
37158;DHT22;23050;51.776;22.638;2022-07-29T07:00:27;29.90;12.20
37158;DHT22;23050;51.776;22.638;2022-07-29T07:02:53;30.00;10.80
37158;DHT22;23050;51.776;22.638;2022-07-29T07:05:19;30.50;10.50
37158;DHT22;23050;51.776;22.638;2022-07-29T07:07:44;30.40;9.20
37158;DHT22;23050;51.776;22.638;2022-07-29T07:10:10;30.30;8.20
37158;DHT22;23050;51.776;22.638;2022-07-29T07:12:35;29.90;9.20
37158;DHT22;23050;51.776;22.638;2022-07-29T07:15:01;30.00;10.00
37158;DHT22;23050;51.776;22.638;2022-07-29T07:17:28;30.50;9.10
37158;DHT22;23050;51.776;22.638;2022-07-29T07:19:53;30.70;8.30
37158;DHT22;23050;51.776;22.638;2022-07-29T07:22:19;31.00;8.70
37158;DHT22;23050;51.776;22.638;2022-07-29T07:24:45;31.30;8.90
37158;DHT22;23050;51.776;22.638;2022-07-29T07:27:10;31.80;6.60
37158;DHT22;23050;51.776;22.638;2022-07-29T07:29:36;31.70;7.50
37158;DHT22;23050;51.776;22.638;2022-07-29T07:32:02;31.80;5.40
37158;DHT22;23050;51.776;22.638;2022-07-29T07:34:27;32.00;6.50
37158;DHT22;23050;51.776;22.638;2022-07-29T07:36:53;32.90;4.60
37158;DHT22;23050;51.776;22.638;2022-07-29T07:39:19;32.60;4.20
37158;DHT22;23050;51.776;22.638;2022-07-29T07:41:44;32.40;5.70
37158;DHT22;23050;51.776;22.638;2022-07-29T07:44:10;32.70;4.10
37158;DHT22;23050;51.776;22.638;2022-07-29T07:46:35;32.30;4.00
37158;DHT22;23050;51.776;22.638;2022-07-29T07:49:01;32.30;4.90
37158;DHT22;23050;51.776;22.638;2022-07-29T07:51:27;31.80;4.50
37158;DHT22;23050;51.776;22.638;2022-07-29T07:53:52;32.20;4.90
37158;DHT22;23050;51.776;22.638;2022-07-29T07:56:18;32.70;3.10
37158;DHT22;23050;51.776;22.638;2022-07-29T07:58:44;32.60;2.00
37158;DHT22;23050;51.776;22.638;2022-07-29T08:01:10;32.60;2.10
37158;DHT22;23050;51.776;22.638;2022-07-29T08:03:35;32.60;1.20
37158;DHT22;23050;51.776;22.638;2022-07-29T08:06:02;32.70;2.40
37158;DHT22;23050;51.776;22.638;2022-07-29T08:08:28;32.70;1.00
37158;DHT22;23050;51.776;22.638;2022-07-29T08:10:53;33.00;1.00
37158;DHT22;23050;51.776;22.638;2022-07-29T08:13:23;32.70;1.00
37158;DHT22;23050;51.776;22.638;2022-07-29T08:15:50;32.10;1.60
37158;DHT22;23050;51.776;22.638;2022-07-29T08:18:28;32.70;1.00
37158;DHT22;23050;51.776;22.638;2022-07-29T08:20:54;32.80;1.00
37158;DHT22;23050;51.776;22.638;2022-07-29T08:23:20;32.80;1.10
37158;DHT22;23050;51.776;22.638;2022-07-29T08:25:46;33.00;1.00
37158;DHT22;23050;51.776;22.638;2022-07-29T08:28:12;32.40;1.00
37158;DHT22;23050;51.776;22.638;2022-07-29T08:30:37;33.00;1.00
37158;DHT22;23050;51.776;22.638;2022-07-29T08:33:03;32.90;1.00
37158;DHT22;23050;51.776;22.638;2022-07-29T08:35:29;33.20;1.00
37158;DHT22;23050;51.776;22.638;2022-07-29T08:37:55;34.00;1.00
37158;DHT22;23050;51.776;22.638;2022-07-29T08:40:22;34.20;1.00
37158;DHT22;23050;51.776;22.638;2022-07-29T08:42:49;34.50;1.00
37158;DHT22;23050;51.776;22.638;2022-07-29T08:45:15;34.30;1.00
37158;DHT22;23050;51.776;22.638;2022-07-29T08:47:40;34.30;1.00
37158;DHT22;23050;51.776;22.638;2022-07-29T08:50:10;34.00;1.00
37158;DHT22;23050;51.776;22.638;2022-07-29T08:52:38;33.90;1.00
37158;DHT22;23050;51.776;22.638;2022-07-29T08:55:04;34.10;1.00
37158;DHT22;23050;51.776;22.638;2022-07-29T08:57:31;33.70;1.00
37158;DHT22;23050;51.776;22.638;2022-07-29T09:00:03;34.00;1.00
37158;DHT22;23050;51.776;22.638;2022-07-29T09:02:39;33.80;1.00
37158;DHT22;23050;51.776;22.638;2022-07-29T09:05:05;33.30;1.00
37158;DHT22;23050;51.776;22.638;2022-07-29T09:07:31;33.50;1.00
37158;DHT22;23050;51.776;22.638;2022-07-29T09:09:57;33.40;1.00
37158;DHT22;23050;51.776;22.638;2022-07-29T09:12:23;32.90;1.00
37158;DHT22;23050;51.776;22.638;2022-07-29T09:14:50;32.30;1.00
37158;DHT22;23050;51.776;22.638;2022-07-29T09:17:16;32.70;1.00
37158;DHT22;23050;51.776;22.638;2022-07-29T09:19:43;33.20;1.00
37158;DHT22;23050;51.776;22.638;2022-07-29T09:22:09;33.50;1.00
37158;DHT22;23050;51.776;22.638;2022-07-29T09:24:44;33.70;1.00
37158;DHT22;23050;51.776;22.638;2022-07-29T09:27:25;33.90;1.00
37158;DHT22;23050;51.776;22.638;2022-07-29T09:30:09;33.90;1.00
37158;DHT22;23050;51.776;22.638;2022-07-29T09:32:55;33.50;1.00
37158;DHT22;23050;51.776;22.638;2022-07-29T09:35:23;33.70;1.00
37158;DHT22;23050;51.776;22.638;2022-07-29T09:37:49;33.40;1.00
37158;DHT22;23050;51.776;22.638;2022-07-29T09:40:21;33.20;1.00
37158;DHT22;23050;51.776;22.638;2022-07-29T09:42:48;33.10;1.00
37158;DHT22;23050;51.776;22.638;2022-07-29T09:45:27;33.10;1.00
37158;DHT22;23050;51.776;22.638;2022-07-29T09:47:53;33.50;1.00
37158;DHT22;23050;51.776;22.638;2022-07-29T09:50:20;33.30;1.00
37158;DHT22;23050;51.776;22.638;2022-07-29T09:52:51;33.30;1.00
37158;DHT22;23050;51.776;22.638;2022-07-29T09:55:19;33.40;1.00
37158;DHT22;23050;51.776;22.638;2022-07-29T09:57:46;32.80;1.00
37158;DHT22;23050;51.776;22.638;2022-07-29T10:00:17;33.20;1.00
37158;DHT22;23050;51.776;22.638;2022-07-29T10:02:45;32.80;1.00
37158;DHT22;23050;51.776;22.638;2022-07-29T10:05:22;33.10;1.00
37158;DHT22;23050;51.776;22.638;2022-07-29T10:07:53;33.20;1.00
37158;DHT22;23050;51.776;22.638;2022-07-29T10:10:28;33.10;1.00
37158;DHT22;23050;51.776;22.638;2022-07-29T10:13:02;33.40;1.00
37158;DHT22;23050;51.776;22.638;2022-07-29T10:15:30;33.80;1.00
37158;DHT22;23050;51.776;22.638;2022-07-29T10:17:58;33.20;1.00
37158;DHT22;23050;51.776;22.638;2022-07-29T10:20:25;32.90;1.00
37158;DHT22;23050;51.776;22.638;2022-07-29T10:22:52;32.70;1.00
37158;DHT22;23050;51.776;22.638;2022-07-29T10:25:18;33.40;1.00
37158;DHT22;23050;51.776;22.638;2022-07-29T10:27:45;34.00;1.00
37158;DHT22;23050;51.776;22.638;2022-07-29T10:30:12;34.00;1.00
37158;DHT22;23050;51.776;22.638;2022-07-29T10:36:07;33.80;1.00
37158;DHT22;23050;51.776;22.638;2022-07-29T10:41:43;33.00;1.00
37158;DHT22;23050;51.776;22.638;2022-07-29T10:44:21;32.80;1.00
37158;DHT22;23050;51.776;22.638;2022-07-29T10:46:48;32.70;1.00
37158;DHT22;23050;51.776;22.638;2022-07-29T10:59:43;32.10;1.00
37158;DHT22;23050;51.776;22.638;2022-07-29T11:02:44;31.90;1.00
37158;DHT22;23050;51.776;22.638;2022-07-29T11:05:15;31.90;1.00
37158;DHT22;23050;51.776;22.638;2022-07-29T11:10:35;31.70;1.00
37158;DHT22;23050;51.776;22.638;2022-07-29T11:13:00;32.30;1.00
37158;DHT22;23050;51.776;22.638;2022-07-29T11:15:26;32.60;1.00
37158;DHT22;23050;51.776;22.638;2022-07-29T11:20:38;32.90;1.00
37158;DHT22;23050;51.776;22.638;2022-07-29T11:23:37;33.00;1.00
37158;DHT22;23050;51.776;22.638;2022-07-29T11:26:17;32.70;1.00
37158;DHT22;23050;51.776;22.638;2022-07-29T11:31:43;31.60;1.00
37158;DHT22;23050;51.776;22.638;2022-07-29T11:34:29;31.50;1.00
37158;DHT22;23050;51.776;22.638;2022-07-29T11:39:33;31.40;1.00
37158;DHT22;23050;51.776;22.638;2022-07-29T11:47:24;29.40;1.00
37158;DHT22;23050;51.776;22.638;2022-07-29T11:49:51;28.80;1.00
37158;DHT22;23050;51.776;22.638;2022-07-29T11:52:18;28.80;1.00
37158;DHT22;23050;51.776;22.638;2022-07-29T11:54:44;29.10;1.00
37158;DHT22;23050;51.776;22.638;2022-07-29T11:57:12;29.00;1.00
37158;DHT22;23050;51.776;22.638;2022-07-29T11:59:39;28.80;1.00
37158;DHT22;23050;51.776;22.638;2022-07-29T12:02:07;28.60;1.00
37158;DHT22;23050;51.776;22.638;2022-07-29T12:04:33;28.20;1.40
37158;DHT22;23050;51.776;22.638;2022-07-29T12:07:00;28.20;2.50
37158;DHT22;23050;51.776;22.638;2022-07-29T12:09:26;28.00;2.00
37158;DHT22;23050;51.776;22.638;2022-07-29T12:11:58;27.80;3.40
37158;DHT22;23050;51.776;22.638;2022-07-29T12:14:33;27.90;4.00
37158;DHT22;23050;51.776;22.638;2022-07-29T12:16:59;28.00;3.60
37158;DHT22;23050;51.776;22.638;2022-07-29T12:19:26;28.30;2.20
37158;DHT22;23050;51.776;22.638;2022-07-29T12:21:53;28.30;1.60
37158;DHT22;23050;51.776;22.638;2022-07-29T12:24:20;28.90;2.20
37158;DHT22;23050;51.776;22.638;2022-07-29T12:26:54;29.00;3.30
37158;DHT22;23050;51.776;22.638;2022-07-29T12:29:21;29.40;2.00
37158;DHT22;23050;51.776;22.638;2022-07-29T12:31:51;29.50;1.60
37158;DHT22;23050;51.776;22.638;2022-07-29T12:34:22;29.80;1.90
37158;DHT22;23050;51.776;22.638;2022-07-29T12:36:47;30.20;1.00
37158;DHT22;23050;51.776;22.638;2022-07-29T12:39:18;30.00;1.00
37158;DHT22;23050;51.776;22.638;2022-07-29T12:41:44;29.90;1.00
37158;DHT22;23050;51.776;22.638;2022-07-29T12:44:10;29.60;1.00
37158;DHT22;23050;51.776;22.638;2022-07-29T12:46:36;29.50;1.00
37158;DHT22;23050;51.776;22.638;2022-07-29T12:49:02;29.20;1.00
37158;DHT22;23050;51.776;22.638;2022-07-29T12:54:10;29.60;1.00
37158;DHT22;23050;51.776;22.638;2022-07-29T12:56:40;29.70;1.00
37158;DHT22;23050;51.776;22.638;2022-07-29T12:59:18;29.30;1.00
37158;DHT22;23050;51.776;22.638;2022-07-29T13:01:45;28.90;1.30
37158;DHT22;23050;51.776;22.638;2022-07-29T13:04:25;28.50;1.20
37158;DHT22;23050;51.776;22.638;2022-07-29T13:06:59;27.40;1.40
37158;DHT22;23050;51.776;22.638;2022-07-29T13:09:40;27.20;3.10
37158;DHT22;23050;51.776;22.638;2022-07-29T13:12:07;27.30;3.30
37158;DHT22;23050;51.776;22.638;2022-07-29T13:14:39;27.20;4.70
37158;DHT22;23050;51.776;22.638;2022-07-29T13:19:44;27.40;4.00
37158;DHT22;23050;51.776;22.638;2022-07-29T13:22:13;27.60;3.10
37158;DHT22;23050;51.776;22.638;2022-07-29T13:25:05;28.10;3.90
37158;DHT22;23050;51.776;22.638;2022-07-29T13:27:35;28.30;2.50
37158;DHT22;23050;51.776;22.638;2022-07-29T13:30:04;28.30;1.60
37158;DHT22;23050;51.776;22.638;2022-07-29T13:32:31;28.50;2.40
37158;DHT22;23050;51.776;22.638;2022-07-29T13:34:59;28.50;2.20
37158;DHT22;23050;51.776;22.638;2022-07-29T13:37:25;28.30;2.80
37158;DHT22;23050;51.776;22.638;2022-07-29T13:39:51;28.20;1.80
37158;DHT22;23050;51.776;22.638;2022-07-29T13:42:18;27.90;1.70
37158;DHT22;23050;51.776;22.638;2022-07-29T13:44:44;27.40;2.30
37158;DHT22;23050;51.776;22.638;2022-07-29T13:47:10;27.40;3.10
37158;DHT22;23050;51.776;22.638;2022-07-29T13:49:36;27.40;3.30
37158;DHT22;23050;51.776;22.638;2022-07-29T13:52:02;27.70;4.60
37158;DHT22;23050;51.776;22.638;2022-07-29T13:54:28;28.30;4.70
37158;DHT22;23050;51.776;22.638;2022-07-29T13:56:54;28.70;1.90
37158;DHT22;23050;51.776;22.638;2022-07-29T13:59:19;28.40;1.80
37158;DHT22;23050;51.776;22.638;2022-07-29T14:01:45;28.30;3.10
37158;DHT22;23050;51.776;22.638;2022-07-29T14:04:11;27.90;3.10
37158;DHT22;23050;51.776;22.638;2022-07-29T14:06:37;28.00;3.20
37158;DHT22;23050;51.776;22.638;2022-07-29T14:09:04;28.00;2.80
37158;DHT22;23050;51.776;22.638;2022-07-29T14:11:34;28.20;4.00
37158;DHT22;23050;51.776;22.638;2022-07-29T14:13:59;28.20;3.70
37158;DHT22;23050;51.776;22.638;2022-07-29T14:16:25;28.00;3.10
37158;DHT22;23050;51.776;22.638;2022-07-29T14:18:50;27.90;3.60
37158;DHT22;23050;51.776;22.638;2022-07-29T14:21:16;27.80;4.10
37158;DHT22;23050;51.776;22.638;2022-07-29T14:23:42;27.60;4.50
37158;DHT22;23050;51.776;22.638;2022-07-29T14:26:07;27.40;4.80
37158;DHT22;23050;51.776;22.638;2022-07-29T14:28:33;27.30;3.80
37158;DHT22;23050;51.776;22.638;2022-07-29T14:30:58;27.00;4.40
37158;DHT22;23050;51.776;22.638;2022-07-29T14:33:24;26.90;4.60
37158;DHT22;23050;51.776;22.638;2022-07-29T14:35:50;26.70;5.30
37158;DHT22;23050;51.776;22.638;2022-07-29T14:38:15;26.40;6.10
37158;DHT22;23050;51.776;22.638;2022-07-29T14:40:41;26.20;6.20
37158;DHT22;23050;51.776;22.638;2022-07-29T14:43:07;26.10;6.30
37158;DHT22;23050;51.776;22.638;2022-07-29T14:45:33;26.00;5.90
37158;DHT22;23050;51.776;22.638;2022-07-29T14:47:58;25.80;6.20
37158;DHT22;23050;51.776;22.638;2022-07-29T14:50:25;25.80;6.40
37158;DHT22;23050;51.776;22.638;2022-07-29T14:52:51;25.80;6.90
37158;DHT22;23050;51.776;22.638;2022-07-29T14:55:17;25.80;7.30
37158;DHT22;23050;51.776;22.638;2022-07-29T14:57:43;25.80;7.60
37158;DHT22;23050;51.776;22.638;2022-07-29T15:00:09;25.80;7.80
37158;DHT22;23050;51.776;22.638;2022-07-29T15:02:35;25.60;8.10
37158;DHT22;23050;51.776;22.638;2022-07-29T15:05:01;25.50;8.80
37158;DHT22;23050;51.776;22.638;2022-07-29T15:07:27;25.50;8.90
37158;DHT22;23050;51.776;22.638;2022-07-29T15:09:53;25.50;8.60
37158;DHT22;23050;51.776;22.638;2022-07-29T15:12:19;25.30;8.20
37158;DHT22;23050;51.776;22.638;2022-07-29T15:14:44;25.30;8.50
37158;DHT22;23050;51.776;22.638;2022-07-29T15:17:10;25.10;8.20
37158;DHT22;23050;51.776;22.638;2022-07-29T15:19:37;25.10;8.80
37158;DHT22;23050;51.776;22.638;2022-07-29T15:22:02;25.00;9.60
37158;DHT22;23050;51.776;22.638;2022-07-29T15:24:30;24.90;9.70
37158;DHT22;23050;51.776;22.638;2022-07-29T15:26:56;24.80;10.20
37158;DHT22;23050;51.776;22.638;2022-07-29T15:29:22;24.80;10.60
37158;DHT22;23050;51.776;22.638;2022-07-29T15:31:47;24.70;10.60
37158;DHT22;23050;51.776;22.638;2022-07-29T15:34:13;24.70;10.40
37158;DHT22;23050;51.776;22.638;2022-07-29T15:36:39;24.60;11.30
37158;DHT22;23050;51.776;22.638;2022-07-29T15:39:04;24.60;11.30
37158;DHT22;23050;51.776;22.638;2022-07-29T15:41:30;24.50;11.80
37158;DHT22;23050;51.776;22.638;2022-07-29T15:43:56;24.40;12.50
37158;DHT22;23050;51.776;22.638;2022-07-29T15:46:21;24.40;12.80
37158;DHT22;23050;51.776;22.638;2022-07-29T15:49:06;24.60;13.70
37158;DHT22;23050;51.776;22.638;2022-07-29T15:51:32;24.70;13.50
37158;DHT22;23050;51.776;22.638;2022-07-29T15:54:00;24.80;14.30
37158;DHT22;23050;51.776;22.638;2022-07-29T15:56:27;25.00;13.40
37158;DHT22;23050;51.776;22.638;2022-07-29T15:58:52;25.40;13.00
37158;DHT22;23050;51.776;22.638;2022-07-29T16:01:18;25.70;12.90
37158;DHT22;23050;51.776;22.638;2022-07-29T16:03:43;26.00;11.40
37158;DHT22;23050;51.776;22.638;2022-07-29T16:06:09;26.20;10.00
37158;DHT22;23050;51.776;22.638;2022-07-29T16:08:35;26.30;10.00
37158;DHT22;23050;51.776;22.638;2022-07-29T16:11:01;26.30;8.60
37158;DHT22;23050;51.776;22.638;2022-07-29T16:13:26;26.40;8.90
37158;DHT22;23050;51.776;22.638;2022-07-29T16:15:52;26.70;9.60